首页
METAR-TAF:

METAR-TAF

机场 :

馬丁尼克-亞米-凱薩國際機場

法兰西堡, 馬提尼克

纬度: 14-36N, 经度: 061-00W, 海拔: 5米

当前天气观测

该预报发布于41分钟前的02:30 UTC
风速3节,风向多变
温度 24°C
湿度 89%
气压 1014 hPa
能见度10公里或以上

METAR: TFFF 230230Z AUTO VRB03KT 9999 ///TCU 24/22 Q1014 BECMG SCT030

时间: 23:11 (03:11 UTC)

预报

该预报发布于4小时和11分钟前的23:00 UTC
预报有效从23日的 00点(UTC)到 23日的 24点(UTC)
风速3节,风向多变
能见度10公里或以上
散云层高于3000英尺
几率 30% :
短暂存在
从 23日的 14点(UTC)到 23日的 22点(UTC)
能見度: 4000
散云层高于1800英尺, 塔状积云.
散云层高于2500英尺
阵雨
几率 30% :
短暂存在
从 23日的 16点(UTC)到 23日的 21点(UTC)
风速10节,风向西转西北

TAF: TFFF 222300Z 2300/2324 VRB03KT 9999 SCT030 PROB30 TEMPO 2314/2322 4000 SHRA SCT018TCU SCT025 PROB30 TEMPO 2316/2321 30010KT

超过4000个机场的气象观测和天气预报(METAR&TAF报告)。

可查询的气象台以黄色和红色小点在地图上表示。

将鼠标移到小点上方,可查看气象台名称。

然后点击查看天气观测和预报。

如需切换地图:点击带黑十字的绿色按钮放大地图;点击带横线的绿色按钮缩小地图;或者点击绿色箭头查看邻近地区的地图。


METAR-TAF: